createdAt,value
2019-04-21T00:00:31.843Z,19.83
2019-04-21T00:05:49.948Z,18.77
2019-04-21T00:10:40.626Z,19.13
2019-04-21T00:15:20.235Z,21.60
2019-04-21T00:20:17.625Z,17.13
2019-04-21T00:25:13.973Z,20.07
2019-04-21T00:30:15.688Z,16.23
2019-04-21T00:34:51.000Z,18.50
2019-04-21T00:44:44.247Z,16.67
2019-04-21T00:49:42.770Z,18.50
2019-04-21T00:54:51.666Z,19.43
2019-04-21T00:59:33.563Z,20.33
2019-04-21T01:04:30.459Z,17.03
2019-04-21T01:09:19.769Z,19.17
2019-04-21T01:14:21.967Z,19.17
2019-04-21T01:19:05.330Z,17.07
2019-04-21T01:23:42.363Z,17.67
2019-04-21T01:28:52.475Z,18.73
2019-04-21T01:33:50.864Z,16.47
2019-04-21T01:38:51.015Z,19.83
2019-04-21T01:43:36.556Z,17.00
2019-04-21T01:48:28.975Z,18.90
2019-04-21T01:53:53.489Z,18.53
2019-04-21T01:58:29.086Z,17.17
2019-04-21T02:03:48.620Z,18.77
2019-04-21T02:08:21.503Z,18.10
2019-04-21T02:13:16.904Z,16.87
2019-04-21T02:18:11.963Z,19.30
2019-04-21T02:23:20.450Z,19.40
2019-04-21T02:28:09.909Z,21.23
2019-04-21T02:33:08.777Z,21.43
2019-04-21T02:38:01.190Z,22.53
2019-04-21T02:43:00.249Z,23.30
2019-04-21T02:52:49.362Z,25.57
2019-04-21T02:57:34.293Z,21.83
2019-04-21T03:02:54.603Z,23.07
2019-04-21T03:07:55.441Z,23.00
2019-04-21T03:17:43.900Z,24.57
2019-04-21T03:32:55.347Z,23.80
2019-04-21T03:37:23.398Z,23.43
2019-04-21T03:51:59.308Z,25.20
2019-04-21T03:57:05.619Z,23.60
2019-04-21T04:02:08.628Z,25.90
2019-04-21T04:07:06.096Z,25.70
2019-04-21T04:11:53.072Z,26.13
2019-04-21T04:17:08.672Z,30.80
2019-04-21T04:26:37.376Z,26.93
2019-04-21T04:31:35.291Z,25.63
2019-04-21T04:41:24.468Z,26.20
2019-04-21T04:46:17.905Z,27.80
2019-04-21T04:51:01.325Z,28.97
2019-04-21T05:06:15.679Z,31.90
2019-04-21T05:11:20.749Z,35.60
2019-04-21T05:15:50.027Z,35.47
2019-04-21T05:20:41.581Z,32.80
2019-04-21T05:25:23.052Z,35.03
2019-04-21T05:30:44.493Z,38.90
2019-04-21T05:36:04.791Z,38.27
2019-04-21T05:40:50.069Z,39.03
2019-04-21T05:45:53.530Z,38.53
2019-04-21T05:50:40.095Z,47.77
2019-04-21T06:05:30.155Z,43.23
2019-04-21T06:10:16.916Z,48.57
2019-04-21T06:15:14.115Z,48.80
2019-04-21T06:20:05.933Z,52.97
2019-04-21T06:29:55.699Z,24.47
2019-04-21T06:35:04.256Z,20.53
2019-04-21T06:39:52.144Z,19.00
2019-04-21T06:44:33.057Z,16.47
2019-04-21T06:49:27.405Z,14.53
2019-04-21T06:54:21.091Z,10.20
2019-04-21T06:59:09.533Z,10.53
2019-04-21T07:04:12.833Z,12.47
2019-04-21T07:09:10.143Z,11.73
2019-04-21T07:14:25.705Z,9.17
2019-04-21T07:19:34.929Z,7.40
2019-04-21T07:24:14.131Z,7.83
2019-04-21T07:29:08.033Z,8.87
2019-04-21T07:34:07.830Z,8.50
2019-04-21T07:38:49.860Z,8.40
2019-04-21T07:43:39.426Z,9.33
2019-04-21T07:48:43.161Z,7.43
2019-04-21T07:53:49.905Z,6.97
2019-04-21T07:58:51.078Z,8.20
2019-04-21T08:03:33.665Z,10.13
2019-04-21T08:08:20.942Z,10.90
2019-04-21T08:13:28.863Z,9.53
2019-04-21T08:18:11.707Z,8.33
2019-04-21T08:23:04.716Z,10.67
2019-04-21T08:27:59.876Z,10.47
2019-04-21T08:33:01.826Z,11.10
2019-04-21T08:37:43.318Z,10.47
2019-04-21T08:42:41.538Z,9.27
2019-04-21T08:47:33.899Z,9.97
2019-04-21T08:52:36.215Z,9.17
2019-04-21T08:57:46.440Z,9.40
2019-04-21T09:02:35.005Z,10.70
2019-04-21T09:07:36.235Z,11.20
2019-04-21T09:12:24.163Z,10.90
2019-04-21T09:17:06.484Z,11.47
2019-04-21T09:22:05.825Z,9.77
2019-04-21T09:26:57.281Z,9.40
2019-04-21T09:31:39.974Z,9.27
2019-04-21T09:36:35.056Z,9.73
2019-04-21T09:41:25.513Z,9.37
2019-04-21T09:46:16.201Z,10.07
2019-04-21T09:51:09.387Z,9.63
2019-04-21T09:56:05.468Z,7.97
2019-04-21T10:01:05.126Z,7.17
2019-04-21T10:05:50.084Z,8.30
2019-04-21T10:10:44.467Z,5.43
2019-04-21T10:15:37.694Z,4.37
2019-04-21T10:20:30.944Z,5.63
2019-04-21T10:25:25.047Z,5.93
2019-04-21T10:30:17.614Z,4.80
2019-04-21T10:35:11.218Z,4.63
2019-04-21T10:40:05.398Z,4.50
2019-04-21T10:44:58.890Z,4.73
2019-04-21T10:49:52.857Z,4.33
2019-04-21T10:55:10.095Z,5.57
2019-04-21T10:59:40.406Z,4.30
2019-04-21T11:04:36.656Z,4.90
2019-04-21T11:09:26.418Z,4.63
2019-04-21T11:14:19.500Z,6.00
2019-04-21T11:19:13.752Z,4.87
2019-04-21T11:24:06.550Z,3.70
2019-04-21T11:29:01.095Z,5.90
2019-04-21T11:33:53.624Z,5.03
2019-04-21T11:39:06.146Z,4.27
2019-04-21T11:43:48.815Z,4.27
2019-04-21T11:48:42.119Z,4.33
2019-04-21T11:53:34.901Z,4.53
2019-04-21T11:58:28.265Z,3.73
2019-04-21T12:03:22.134Z,4.33
2019-04-21T12:08:23.096Z,3.60
2019-04-21T12:13:09.956Z,4.90
2019-04-21T12:18:03.559Z,7.77
2019-04-21T12:22:56.990Z,3.90
2019-04-21T12:27:49.950Z,6.40
2019-04-21T12:32:49.652Z,6.87
2019-04-21T12:37:43.086Z,4.40
2019-04-21T12:42:38.820Z,5.00
2019-04-21T12:47:30.262Z,6.07
2019-04-21T12:52:24.003Z,5.23
2019-04-21T12:57:17.195Z,4.83
2019-04-21T13:02:11.750Z,5.10
2019-04-21T13:07:05.329Z,5.87
2019-04-21T13:11:57.799Z,5.27
2019-04-21T13:16:51.755Z,4.93
2019-04-21T13:21:45.838Z,5.77
2019-04-21T13:26:45.639Z,4.90
2019-04-21T13:31:32.133Z,5.10
2019-04-21T13:36:25.813Z,6.13
2019-04-21T13:41:32.806Z,6.40
2019-04-21T13:46:15.485Z,6.00
2019-04-21T13:51:09.144Z,7.10
2019-04-21T13:56:02.641Z,6.67
2019-04-21T14:00:56.119Z,6.30
2019-04-21T14:05:50.609Z,6.27
2019-04-21T14:10:43.942Z,6.40
2019-04-21T14:15:36.709Z,9.43
2019-04-21T14:20:31.104Z,8.63
2019-04-21T14:25:23.905Z,10.30
2019-04-21T14:30:18.580Z,8.80
2019-04-21T14:35:10.952Z,7.33
2019-04-21T14:40:09.045Z,10.37
2019-04-21T14:44:58.826Z,8.70
2019-04-21T14:50:17.666Z,11.03
2019-04-21T14:55:18.545Z,11.20
2019-04-21T15:00:11.176Z,11.27
2019-04-21T15:05:04.852Z,9.67
2019-04-21T15:10:04.801Z,9.93
2019-04-21T15:14:51.963Z,9.23
2019-04-21T15:19:53.969Z,10.13
2019-04-21T15:24:40.428Z,10.67
2019-04-21T15:29:33.004Z,10.60
2019-04-21T15:34:27.347Z,7.93
2019-04-21T15:39:19.794Z,10.27
2019-04-21T15:44:14.548Z,9.40
2019-04-21T15:49:07.007Z,11.50
2019-04-21T15:54:00.689Z,8.83
2019-04-21T15:58:58.991Z,13.90
2019-04-21T16:03:53.326Z,10.47
2019-04-21T16:08:47.410Z,9.70
2019-04-21T16:13:39.698Z,14.23
2019-04-21T16:18:34.147Z,14.27
2019-04-21T16:23:26.742Z,12.60
2019-04-21T16:28:21.537Z,11.03
2019-04-21T16:33:14.344Z,14.70
2019-04-21T16:38:07.843Z,11.47
2019-04-21T16:43:00.423Z,13.07
2019-04-21T16:47:55.520Z,13.87
2019-04-21T16:52:52.237Z,15.63
2019-04-21T16:57:59.681Z,12.80
2019-04-21T17:02:42.782Z,9.50
2019-04-21T17:07:35.062Z,10.90
2019-04-21T17:12:30.555Z,10.87
2019-04-21T17:17:48.059Z,13.23
2019-04-21T17:22:15.674Z,12.73
2019-04-21T17:27:09.112Z,14.40
2019-04-21T17:32:09.816Z,11.70
2019-04-21T17:37:03.513Z,13.43
2019-04-21T17:42:10.970Z,13.20
2019-04-21T17:46:57.569Z,14.13
2019-04-21T17:52:05.935Z,16.77
2019-04-21T17:57:17.875Z,13.43
2019-04-21T18:02:04.104Z,13.00
2019-04-21T18:07:00.843Z,13.83
2019-04-21T18:12:01.562Z,10.93
2019-04-21T18:16:40.058Z,13.43
2019-04-21T18:21:34.656Z,11.33
2019-04-21T18:26:38.690Z,13.23
2019-04-21T18:31:22.829Z,11.63
2019-04-21T18:36:34.070Z,15.47
2019-04-21T18:41:27.007Z,15.87
2019-04-21T18:47:07.345Z,17.23
2019-04-21T18:51:59.665Z,13.53
2019-04-21T18:56:53.612Z,18.50
2019-04-21T19:01:38.901Z,19.00
2019-04-21T19:06:48.419Z,20.43
2019-04-21T19:11:46.711Z,19.50
2019-04-21T19:17:13.874Z,17.77
2019-04-21T19:21:24.198Z,16.73
2019-04-21T19:31:24.834Z,16.90
2019-04-21T19:35:53.097Z,18.43
2019-04-21T19:41:00.792Z,21.30
2019-04-21T19:45:54.272Z,18.87
2019-04-21T19:50:55.917Z,18.67
2019-04-21T19:55:26.175Z,20.27
2019-04-21T20:00:19.594Z,19.47
2019-04-21T20:05:23.631Z,21.00
2019-04-21T20:10:26.902Z,22.77
2019-04-21T20:15:26.075Z,22.40
2019-04-21T20:19:54.102Z,16.83
2019-04-21T20:24:53.988Z,18.27
2019-04-21T20:29:57.931Z,19.30
2019-04-21T20:34:57.361Z,17.90
2019-04-21T20:39:39.153Z,16.27
2019-04-21T20:44:42.304Z,18.20
2019-04-21T20:49:27.478Z,19.13
2019-04-21T20:54:24.681Z,17.97
2019-04-21T20:59:17.545Z,16.90
2019-04-21T21:04:06.429Z,15.43
2019-04-21T21:09:04.821Z,17.00
2019-04-21T21:13:58.698Z,19.57
2019-04-21T21:19:06.932Z,20.47
2019-04-21T21:23:48.092Z,16.47
2019-04-21T21:28:38.018Z,18.27
2019-04-21T21:33:45.297Z,16.93
2019-04-21T21:38:31.447Z,17.10
2019-04-21T21:43:08.188Z,17.03
2019-04-21T21:48:16.156Z,17.43
2019-04-21T21:53:02.205Z,19.23
2019-04-21T21:57:49.900Z,20.90
2019-04-21T22:02:44.209Z,21.93
2019-04-21T22:07:33.216Z,19.20
2019-04-21T22:12:25.854Z,21.17
2019-04-21T22:17:34.724Z,20.37
2019-04-21T22:22:29.873Z,19.70
2019-04-21T22:27:05.475Z,21.03
2019-04-21T22:32:04.236Z,22.87
2019-04-21T22:37:01.376Z,18.53
2019-04-21T22:41:49.212Z,19.03
2019-04-21T22:46:53.015Z,19.17
2019-04-21T22:51:38.339Z,20.77
2019-04-21T22:56:32.052Z,19.40
2019-04-21T23:01:28.504Z,17.43
2019-04-21T23:06:21.172Z,20.07
2019-04-21T23:11:12.191Z,18.10
2019-04-21T23:16:03.153Z,17.50
2019-04-21T23:21:10.169Z,17.77
2019-04-21T23:26:09.100Z,17.47
2019-04-21T23:31:00.884Z,16.23
2019-04-21T23:35:40.035Z,14.67
2019-04-21T23:40:30.832Z,16.37
2019-04-21T23:45:25.214Z,14.63
2019-04-21T23:50:25.132Z,15.40
2019-04-21T23:55:09.363Z,13.47
